Time;durP1;ratioP1;P1;durP2;ratioP2;P2;SDS_P1;SDS_P2;PMS_P1;PMS_P2;Temp;Humidity;BMP_temperature;BMP_pressure;BME280_temperature;BME280_humidity;BME280_pressure;Samples;Min_cycle;Max_cycle;Signal;HPM_P1;HPM_P2
2022/08/02 00:01:59;;;;;;;;;4.75;4.75;;;;;23.93;50.88;101298.34;5093819;27;45382;-82
2022/08/02 00:04:24;;;;;;;;;5.25;5.25;;;;;23.92;51.14;101296.56;5074946;27;47056;-84
2022/08/02 00:06:49;;;;;;;;;6.00;6.00;;;;;23.82;50.73;101292.22;5075237;27;45476;-83
2022/08/02 00:09:15;;;;;;;;;4.75;4.75;;;;;23.81;50.95;101307.44;5075558;27;45430;-84
2022/08/02 00:11:41;;;;;;;;;5.50;5.25;;;;;23.65;51.18;101281.69;5075324;27;45754;-83
2022/08/02 00:14:06;;;;;;;;;6.00;5.50;;;;;23.65;51.88;101290.63;5075257;27;46052;-83
2022/08/02 00:16:31;;;;;;;;;6.50;6.00;;;;;23.54;51.57;101289.78;5075194;27;45467;-84
2022/08/02 00:18:57;;;;;;;;;5.00;4.25;;;;;23.44;52.12;101277.38;5074878;27;45505;-84
2022/08/02 00:21:22;;;;;;;;;5.00;5.00;;;;;23.52;52.48;101299.66;5093691;27;45388;-84
2022/08/02 00:23:47;;;;;;;;;5.25;5.25;;;;;23.25;52.21;101260.59;5093664;27;46202;-83
2022/08/02 00:26:13;;;;;;;;;6.00;6.00;;;;;23.41;52.10;101294.41;5093759;27;45469;-84
2022/08/02 00:28:38;;;;;;;;;5.50;5.50;;;;;23.33;51.72;101279.28;5093689;27;45363;-84
2022/08/02 00:31:03;;;;;;;;;6.00;6.00;;;;;23.38;52.62;101286.38;5075293;27;45288;-84
2022/08/02 00:33:29;;;;;;;;;6.00;5.50;;;;;23.23;52.12;101264.16;5074758;27;48198;-83
2022/08/02 00:35:54;;;;;;;;;7.75;7.00;;;;;23.14;52.59;101260.66;5093354;27;45417;-82
2022/08/02 00:38:19;;;;;;;;;7.00;6.25;;;;;23.22;53.16;101270.44;5093403;27;45404;-85
2022/08/02 00:40:50;;;;;;;;;6.50;6.00;;;;;23.24;52.48;101282.91;5094650;27;45334;-84
2022/08/02 00:43:16;;;;;;;;;5.00;5.00;;;;;23.06;53.12;101264.34;5078434;27;48372;-85
2022/08/02 00:45:42;;;;;;;;;7.00;6.00;;;;;22.99;52.95;101262.59;5097641;27;45668;-85
2022/08/02 00:48:10;;;;;;;;;5.25;5.25;;;;;23.08;53.10;101298.25;5096986;27;45448;-84
2022/08/02 00:50:36;;;;;;;;;5.00;5.00;;;;;23.13;53.19;101307.16;5078105;27;45490;-82
2022/08/02 00:53:03;;;;;;;;;9.75;8.00;;;;;23.00;52.70;101280.44;5096690;27;45322;-85
2022/08/02 00:55:29;;;;;;;;;5.75;5.75;;;;;23.11;52.61;101297.34;5078455;27;45807;-85
2022/08/02 00:57:54;;;;;;;;;6.00;6.00;;;;;22.99;52.95;101274.19;5078378;27;45665;-85
2022/08/02 01:00:20;;;;;;;;;6.75;6.75;;;;;23.10;52.99;101292.88;5078517;27;45497;-83
2022/08/02 01:02:46;;;;;;;;;6.25;6.00;;;;;22.99;53.21;101279.56;5096412;27;45419;-85
2022/08/02 01:05:11;;;;;;;;;6.25;6.25;;;;;23.07;53.72;101301.84;5096355;27;45461;-85
2022/08/02 01:07:37;;;;;;;;;7.00;6.00;;;;;22.94;52.99;101284.06;5097665;27;45531;-85
2022/08/02 01:10:04;;;;;;;;;5.00;5.00;;;;;22.90;53.63;101299.28;5078903;27;45613;-85
2022/08/02 01:12:29;;;;;;;;;8.00;7.50;;;;;22.90;54.35;101315.34;5096827;27;46304;-86
2022/08/02 01:14:58;;;;;;;;;5.50;5.50;;;;;22.78;54.22;101299.34;5078216;27;45717;-85
2022/08/02 01:17:51;;;;;;;;;6.50;6.50;;;;;22.85;54.19;101311.78;5097511;27;45520;-85
2022/08/02 01:20:41;;;;;;;;;3.00;3.00;;;;;22.80;53.86;101315.41;5077919;27;45525;-85
2022/08/02 01:23:25;;;;;;;;;6.50;6.00;;;;;22.72;54.31;101318.16;5096603;27;46431;-86
2022/08/02 01:26:02;;;;;;;;;7.25;7.00;;;;;22.67;54.51;101318.19;5097133;27;46109;-85
2022/08/02 01:28:33;;;;;;;;;5.50;4.75;;;;;22.61;54.67;101317.31;5078276;27;45578;-85
2022/08/02 01:31:06;;;;;;;;;7.50;7.50;;;;;22.50;55.15;101311.13;5078277;27;45656;-85
2022/08/02 01:33:40;;;;;;;;;6.25;6.25;;;;;22.44;54.90;101301.34;5095467;27;46769;-85
2022/08/02 01:36:10;;;;;;;;;6.25;6.25;;;;;22.33;55.22;101284.44;5077885;27;45546;-85
2022/08/02 01:38:40;;;;;;;;;6.50;6.00;;;;;22.23;55.02;101278.25;5096173;27;45445;-84
2022/08/02 01:41:10;;;;;;;;;6.75;6.75;;;;;22.29;55.41;101294.28;5096125;27;45362;-84
2022/08/02 01:43:39;;;;;;;;;6.75;6.75;;;;;22.11;55.71;101275.59;5095871;27;46463;-84
2022/08/02 01:46:05;;;;;;;;;7.50;6.75;;;;;22.20;56.22;101296.09;5096198;27;45405;-84
2022/08/02 01:48:33;;;;;;;;;6.25;6.25;;;;;22.23;56.00;101312.16;5095451;27;45294;-85
2022/08/02 01:51:01;;;;;;;;;6.00;5.75;;;;;22.03;55.92;101280.09;5095929;27;45355;-83
2022/08/02 01:53:29;;;;;;;;;4.25;4.25;;;;;22.19;56.05;101313.06;5095994;27;45291;-85
2022/08/02 01:55:58;;;;;;;;;7.00;6.25;;;;;22.10;56.33;101309.47;5077397;27;45927;-85
2022/08/02 01:58:27;;;;;;;;;6.75;6.00;;;;;21.95;56.38;101287.25;5096058;27;45400;-84
2022/08/02 02:00:56;;;;;;;;;5.75;5.75;;;;;22.09;56.51;101307.72;5096105;27;45495;-85
2022/08/02 02:03:23;;;;;;;;;7.25;7.25;;;;;22.06;56.79;101313.06;5095892;27;46694;-85
2022/08/02 02:05:52;;;;;;;;;6.75;6.75;;;;;21.90;56.50;101289.94;5077561;27;45509;-85
2022/08/02 02:08:26;;;;;;;;;7.25;6.50;;;;;22.00;56.78;101307.75;5096423;27;45327;-85
2022/08/02 02:10:53;;;;;;;;;8.00;7.00;;;;;21.82;57.24;101275.66;5096013;27;45355;-85
2022/08/02 02:13:19;;;;;;;;;5.75;5.00;;;;;21.81;57.22;101273.91;5095870;27;46738;-85
2022/08/02 02:15:47;;;;;;;;;2.75;2.75;;;;;21.72;56.69;101263.22;5095882;27;45420;-85
2022/08/02 02:18:28;;;;;;;;;5.25;4.75;;;;;21.73;56.85;101276.63;5077265;27;45449;-85
2022/08/02 02:20:53;;;;;;;;;5.00;5.00;;;;;21.69;57.01;101264.13;5095745;27;45648;-85
2022/08/02 02:23:19;;;;;;;;;5.75;5.75;;;;;21.75;57.15;101271.25;5095401;27;46516;-85
2022/08/02 02:25:46;;;;;;;;;6.25;5.50;;;;;21.79;57.34;101281.94;5095480;27;45658;-85
2022/08/02 02:28:21;;;;;;;;;6.75;6.00;;;;;21.83;58.00;101282.84;5095949;27;45327;-85
2022/08/02 02:30:48;;;;;;;;;7.25;7.00;;;;;21.86;57.42;101274.78;5095837;27;45498;-85
2022/08/02 02:33:17;;;;;;;;;8.00;8.00;;;;;21.85;57.31;101281.03;5095360;27;45430;-85
2022/08/02 02:35:46;;;;;;;;;7.00;6.50;;;;;21.88;57.23;101286.38;5094963;27;45237;-85
2022/08/02 02:38:15;;;;;;;;;6.00;6.00;;;;;21.72;57.79;101279.28;5095355;27;45397;-85
2022/08/02 02:40:42;;;;;;;;;6.00;6.00;;;;;21.72;57.90;101279.28;5095302;27;45537;-85
2022/08/02 02:43:11;;;;;;;;;6.75;6.25;;;;;21.43;57.73;101233.88;5095078;27;45338;-85
2022/08/02 02:45:38;;;;;;;;;6.75;6.50;;;;;21.68;57.86;101282.88;5095178;27;45360;-85
2022/08/02 02:48:05;;;;;;;;;7.00;6.50;;;;;21.61;58.17;101277.50;5095314;27;45413;-85
2022/08/02 02:50:32;;;;;;;;;6.50;6.50;;;;;21.43;58.45;101250.84;5076575;27;45554;-84
2022/08/02 02:53:00;;;;;;;;;6.25;6.00;;;;;21.34;58.40;101235.69;5076509;27;48192;-85
2022/08/02 02:55:26;;;;;;;;;4.00;4.00;;;;;21.48;58.48;101261.53;5095491;27;45602;-85
2022/08/02 02:57:53;;;;;;;;;6.00;6.00;;;;;21.48;58.50;101273.09;5095093;27;45539;-84
2022/08/02 03:01:26;;;;;;;;;6.75;6.50;;;;;21.33;58.86;101254.41;5095346;27;45694;-85
2022/08/02 03:03:05;;;;;;;;;7.25;6.25;;;;;21.34;58.75;101262.44;5093582;27;46563;-84
2022/08/02 03:05:30;;;;;;;;;6.00;6.00;;;;;21.44;58.78;101279.34;5076663;27;46083;-85
2022/08/02 03:07:55;;;;;;;;;6.00;6.00;;;;;21.43;58.59;101271.31;5076766;27;45512;-83
2022/08/02 03:10:21;;;;;;;;;6.25;6.25;;;;;21.43;58.55;101266.88;5094944;27;45435;-85
2022/08/02 03:12:47;;;;;;;;;6.75;6.50;;;;;21.40;58.44;101245.47;5076444;27;48283;-84
2022/08/02 03:15:14;;;;;;;;;6.50;6.50;;;;;21.62;58.47;101283.75;5095141;27;45579;-85
2022/08/02 03:17:44;;;;;;;;;6.50;6.50;;;;;21.53;58.27;101251.72;5094863;27;45553;-84
2022/08/02 03:20:13;;;;;;;;;7.25;7.25;;;;;21.53;58.21;101249.91;5075943;27;45573;-86
2022/08/02 03:22:39;;;;;;;;;6.00;6.00;;;;;21.55;58.70;101266.84;5076151;27;46421;-85
2022/08/02 03:25:05;;;;;;;;;7.50;7.00;;;;;21.44;58.56;101257.06;5094320;27;45374;-84
2022/08/02 03:27:31;;;;;;;;;6.00;6.00;;;;;21.23;58.50;101228.53;5076200;27;45269;-83
2022/08/02 03:29:56;;;;;;;;;5.25;5.25;;;;;21.26;59.35;101241.91;5094677;27;45412;-83
2022/08/02 03:32:23;;;;;;;;;5.00;5.00;;;;;21.37;58.86;101277.56;5094170;27;45437;-85
2022/08/02 03:34:48;;;;;;;;;6.00;6.00;;;;;21.16;59.36;101240.13;5093508;27;45386;-83
2022/08/02 03:37:14;;;;;;;;;8.00;7.00;;;;;21.26;59.23;101260.63;5094403;27;45538;-83
2022/08/02 03:39:40;;;;;;;;;6.00;6.00;;;;;21.33;59.22;101281.16;5094322;27;45506;-83
2022/08/02 03:42:07;;;;;;;;;6.00;6.00;;;;;21.14;59.08;101253.50;5094164;27;46778;-82
2022/08/02 03:44:33;;;;;;;;;7.25;7.25;;;;;21.12;59.34;101253.47;5094312;27;45824;-85
2022/08/02 03:46:59;;;;;;;;;4.25;4.25;;;;;21.26;59.33;101276.66;5075734;27;45429;-86
2022/08/02 03:49:24;;;;;;;;;5.00;5.00;;;;;20.98;59.37;101227.66;5094049;27;45374;-83
2022/08/02 03:51:51;;;;;;;;;5.50;5.50;;;;;21.21;59.46;101278.44;5075855;27;47069;-83
2022/08/02 03:54:17;;;;;;;;;5.75;5.50;;;;;21.12;59.25;101258.81;5075714;27;45345;-84
2022/08/02 03:56:43;;;;;;;;;6.00;5.25;;;;;20.94;59.76;101232.13;5093874;27;45444;-84
2022/08/02 03:59:13;;;;;;;;;4.00;4.00;;;;;21.15;59.76;101260.63;5094248;27;45488;-85
2022/08/02 04:01:39;;;;;;;;;6.50;5.00;;;;;21.09;60.05;101260.63;5093939;27;46905;-83
2022/08/02 04:04:05;;;;;;;;;5.25;5.25;;;;;21.11;59.79;101275.75;5093679;27;45371;-82
2022/08/02 04:06:31;;;;;;;;;5.50;5.50;;;;;20.86;60.16;101236.56;5094135;27;45296;-85
2022/08/02 04:08:57;;;;;;;;;7.00;7.00;;;;;20.96;60.25;101257.06;5094061;27;45382;-83
2022/08/02 04:11:31;;;;;;;;;5.75;5.00;;;;;20.83;60.15;101226.75;5075339;27;45966;-84
2022/08/02 04:14:04;;;;;;;;;5.00;5.00;;;;;20.87;60.18;101239.25;5093629;27;45316;-83
2022/08/02 04:16:51;;;;;;;;;6.00;6.00;;;;;21.03;60.21;101272.22;5097521;27;44763;-84
2022/08/02 04:19:24;;;;;;;;;7.00;5.00;;;;;21.04;60.06;101270.44;5078890;27;45587;-84
2022/08/02 04:21:52;;;;;;;;;5.00;4.75;;;;;21.01;60.23;101274.00;5097295;27;45373;-82
2022/08/02 04:24:33;;;;;;;;;6.00;6.00;;;;;20.99;60.05;101273.09;5078902;27;45490;-85
2022/08/02 04:26:59;;;;;;;;;8.00;6.00;;;;;20.95;60.22;101267.75;5098160;27;45516;-85
2022/08/02 04:29:25;;;;;;;;;5.25;5.00;;;;;20.79;60.36;101242.81;5097513;27;45522;-83
2022/08/02 04:31:53;;;;;;;;;4.25;4.25;;;;;20.85;60.44;101257.06;5097650;27;46384;-85
2022/08/02 04:34:19;;;;;;;;;6.00;6.00;;;;;20.67;60.27;101227.66;5096991;27;46028;-85
2022/08/02 04:36:46;;;;;;;;;5.00;4.00;;;;;20.86;60.34;101263.28;5097260;27;45435;-82
2022/08/02 04:39:12;;;;;;;;;6.00;6.00;;;;;20.94;60.27;101285.59;5097232;27;45561;-83
2022/08/02 04:41:45;;;;;;;;;5.00;5.00;;;;;20.64;60.36;101229.41;5097229;27;46706;-85
2022/08/02 04:44:13;;;;;;;;;6.25;6.00;;;;;20.77;60.32;101248.13;5097476;27;45877;-83
2022/08/02 04:46:40;;;;;;;;;6.50;6.50;;;;;20.82;60.04;101264.19;5097094;27;45355;-85
2022/08/02 04:49:05;;;;;;;;;5.50;5.00;;;;;20.94;60.31;101282.91;5096810;27;45306;-83
2022/08/02 04:51:39;;;;;;;;;5.25;5.25;;;;;20.75;60.20;101251.72;5096640;27;45444;-84
2022/08/02 04:54:09;;;;;;;;;6.00;6.00;;;;;20.86;60.44;101264.19;5078585;27;45459;-85
2022/08/02 04:56:34;;;;;;;;;5.25;4.50;;;;;20.80;60.25;101258.84;5078701;27;45483;-84
2022/08/02 04:58:59;;;;;;;;;5.00;4.00;;;;;20.84;60.33;101273.09;5097068;27;45371;-84
2022/08/02 05:01:25;;;;;;;;;4.00;4.00;;;;;20.81;60.55;101254.38;5078472;27;47379;-84
2022/08/02 05:03:50;;;;;;;;;4.50;4.00;;;;;20.78;60.53;101241.00;5077958;27;46142;-85
2022/08/02 05:06:18;;;;;;;;;6.00;6.00;;;;;20.76;60.33;101241.03;5078615;27;45454;-85
2022/08/02 05:08:44;;;;;;;;;4.50;4.50;;;;;20.78;60.57;101249.91;5097003;27;45572;-83
2022/08/02 05:11:09;;;;;;;;;4.50;4.00;;;;;20.80;60.26;101250.81;5096736;27;46461;-82
2022/08/02 05:13:34;;;;;;;;;6.75;6.00;;;;;20.97;60.46;101264.19;5078073;27;45361;-84
2022/08/02 05:16:02;;;;;;;;;5.00;5.00;;;;;20.81;60.37;101235.69;5096710;27;45624;-83
2022/08/02 05:18:27;;;;;;;;;4.00;4.00;;;;;20.91;60.10;101241.91;5078232;27;45711;-83
2022/08/02 05:20:53;;;;;;;;;5.00;5.00;;;;;21.02;60.54;101265.06;5096207;27;46410;-84
2022/08/02 05:23:19;;;;;;;;;5.25;5.00;;;;;21.02;60.01;101251.72;5096611;27;45434;-82
2022/08/02 05:25:44;;;;;;;;;4.75;4.25;;;;;21.01;60.39;101247.25;5096308;27;45307;-85
2022/08/02 05:28:09;;;;;;;;;5.75;5.50;;;;;21.07;59.70;101252.59;5095999;27;45477;-83
2022/08/02 05:30:35;;;;;;;;;6.75;5.75;;;;;21.08;60.03;101248.13;5096133;27;45245;-84
2022/08/02 05:33:00;;;;;;;;;5.00;5.00;;;;;21.10;59.92;101241.91;5096045;27;45510;-84
2022/08/02 05:35:25;;;;;;;;;4.00;4.00;;;;;21.12;59.63;101239.22;5096031;27;45493;-84
2022/08/02 05:37:51;;;;;;;;;5.00;5.00;;;;;21.45;59.09;101290.94;5096391;27;45544;-85
2022/08/02 05:40:18;;;;;;;;;5.00;4.00;;;;;21.32;59.40;101257.97;5077731;27;46411;-83
2022/08/02 05:42:43;;;;;;;;;6.75;5.00;;;;;21.41;59.39;101265.09;5078000;27;46118;-85
2022/08/02 05:45:09;;;;;;;;;5.75;5.25;;;;;21.44;59.02;101271.31;5096358;27;45366;-85
2022/08/02 05:47:35;;;;;;;;;4.00;4.00;;;;;21.45;59.34;101265.06;5095788;27;45406;-84
2022/08/02 05:50:02;;;;;;;;;4.50;4.00;;;;;21.63;59.46;101297.16;5095378;27;45338;-85
2022/08/02 05:52:45;;;;;;;;;5.75;5.75;;;;;21.54;58.51;101273.09;5077351;27;45789;-82
2022/08/02 05:55:31;;;;;;;;;4.75;4.75;;;;;21.52;58.60;101264.16;5077798;27;45504;-83
2022/08/02 05:58:12;;;;;;;;;5.50;5.00;;;;;21.79;58.64;101298.00;5095981;27;45391;-83
2022/08/02 06:00:40;;;;;;;;;5.00;4.75;;;;;21.85;58.17;101299.75;5095714;27;46560;-83
2022/08/02 06:03:37;;;;;;;;;3.00;3.00;;;;;21.89;58.44;101294.41;5095584;27;45794;-82
2022/08/02 06:06:13;;;;;;;;;4.00;4.00;;;;;21.93;58.02;101292.63;5077563;27;45397;-83
2022/08/02 06:08:53;;;;;;;;;5.50;5.00;;;;;21.97;57.59;101288.13;5077272;27;45545;-84
2022/08/02 06:11:23;;;;;;;;;4.50;4.00;;;;;21.93;58.15;101273.00;5077259;27;47310;-85
2022/08/02 06:13:50;;;;;;;;;5.75;5.00;;;;;21.87;57.67;101252.47;5095476;27;45942;-85
2022/08/02 06:16:16;;;;;;;;;5.00;4.50;;;;;21.97;57.60;101277.41;5095606;27;45534;-85
2022/08/02 06:18:42;;;;;;;;;4.75;4.50;;;;;21.81;58.06;101241.78;5076651;27;45505;-84
2022/08/02 06:21:09;;;;;;;;;4.50;3.75;;;;;22.10;58.05;101276.47;5095389;27;45628;-83
2022/08/02 06:23:40;;;;;;;;;5.00;4.25;;;;;21.97;57.56;101248.88;5095762;27;45488;-85
2022/08/02 06:26:07;;;;;;;;;4.00;4.00;;;;;22.14;57.74;101280.94;5095656;27;45521;-85
2022/08/02 06:28:36;;;;;;;;;4.00;3.00;;;;;22.05;57.38;101260.44;5095450;27;45540;-84
2022/08/02 06:31:03;;;;;;;;;6.00;5.75;;;;;22.11;57.85;101265.78;5095172;27;45377;-83
2022/08/02 06:33:29;;;;;;;;;5.00;5.00;;;;;22.15;57.93;101269.34;5094911;27;45973;-84
2022/08/02 06:36:02;;;;;;;;;4.00;4.00;;;;;22.34;57.15;101294.25;5095034;27;47672;-82
2022/08/02 06:38:32;;;;;;;;;5.00;4.75;;;;;22.18;57.07;101255.94;5094190;27;45566;-83
2022/08/02 06:41:05;;;;;;;;;4.25;4.25;;;;;22.18;57.15;101257.75;5095196;27;46319;-84
2022/08/02 06:43:48;;;;;;;;;5.00;4.50;;;;;22.47;57.24;101298.66;5095283;27;45404;-85
2022/08/02 06:46:14;;;;;;;;;3.00;3.00;;;;;22.35;57.64;101274.59;5095300;27;45473;-82
2022/08/02 06:48:39;;;;;;;;;4.00;4.00;;;;;22.39;57.33;101273.69;5094799;27;45321;-85
2022/08/02 06:51:05;;;;;;;;;5.25;4.75;;;;;22.41;57.08;101271.88;5094990;27;46199;-83
2022/08/02 06:53:33;;;;;;;;;4.75;4.50;;;;;22.43;56.87;101271.88;5095040;27;45508;-85
2022/08/02 06:56:00;;;;;;;;;6.00;6.00;;;;;22.58;56.58;101296.78;5095250;27;45281;-84
2022/08/02 06:58:25;;;;;;;;;5.25;4.00;;;;;22.61;56.19;101294.09;5095502;27;45422;-83
2022/08/02 07:00:51;;;;;;;;;4.00;4.00;;;;;22.58;56.06;101288.75;5095384;27;46390;-82
2022/08/02 07:03:17;;;;;;;;;5.50;5.00;;;;;22.74;56.34;101308.31;5094841;27;45868;-83
2022/08/02 07:05:47;;;;;;;;;6.00;6.00;;;;;22.69;56.54;101306.56;5095300;27;45459;-86
2022/08/02 07:08:15;;;;;;;;;5.75;5.75;;;;;22.50;56.38;101269.16;5095338;27;45339;-85
2022/08/02 07:10:41;;;;;;;;;5.25;5.00;;;;;22.76;55.93;101308.28;5095132;27;45654;-85
2022/08/02 07:13:06;;;;;;;;;4.00;4.00;;;;;22.87;55.86;101323.41;5076597;27;45370;-85
2022/08/02 07:15:31;;;;;;;;;5.75;5.75;;;;;22.83;56.09;101302.00;5095322;27;45664;-85
2022/08/02 07:17:57;;;;;;;;;5.00;4.75;;;;;22.90;56.63;101310.00;5095039;27;45482;-85
2022/08/02 07:20:22;;;;;;;;;7.25;6.50;;;;;22.81;55.47;101291.28;5093954;27;46471;-85
2022/08/02 07:22:48;;;;;;;;;6.00;6.00;;;;;22.86;55.54;101286.78;5094730;27;45391;-85
2022/08/02 07:25:13;;;;;;;;;5.25;5.25;;;;;22.99;55.49;101305.47;5094579;27;45456;-84
2022/08/02 07:27:38;;;;;;;;;5.75;5.75;;;;;23.03;55.36;101304.56;5094724;27;45396;-85
2022/08/02 07:30:05;;;;;;;;;4.75;4.00;;;;;22.85;55.06;101265.34;5094753;27;46407;-85
2022/08/02 07:32:31;;;;;;;;;7.75;7.25;;;;;23.05;54.94;101292.03;5094444;27;45362;-85
2022/08/02 07:34:56;;;;;;;;;6.00;5.00;;;;;22.99;55.11;101276.00;5075967;27;45512;-85
2022/08/02 07:37:27;;;;;;;;;5.00;5.00;;;;;23.21;54.68;101308.91;5075870;27;45481;-85
2022/08/02 07:39:53;;;;;;;;;6.00;5.50;;;;;23.15;55.19;101304.44;5094342;27;46398;-85
2022/08/02 07:42:18;;;;;;;;;4.50;4.00;;;;;23.14;55.66;101291.94;5094267;27;45448;-85
2022/08/02 07:44:44;;;;;;;;;2.75;2.50;;;;;23.20;55.20;101304.41;5094680;27;45494;-84
2022/08/02 07:47:09;;;;;;;;;7.00;5.75;;;;;23.23;55.50;101294.56;5094343;27;45456;-85
2022/08/02 07:49:34;;;;;;;;;5.75;5.75;;;;;23.30;54.64;101306.09;5093603;27;45352;-84
2022/08/02 07:52:00;;;;;;;;;4.25;4.25;;;;;23.28;54.61;101295.41;5075790;27;45984;-85
2022/08/02 07:54:25;;;;;;;;;7.50;7.00;;;;;23.31;54.71;101294.50;5094302;27;45299;-85
2022/08/02 07:56:52;;;;;;;;;4.00;4.00;;;;;23.47;54.86;101322.06;5075700;27;44891;-84
2022/08/02 07:59:18;;;;;;;;;4.25;4.00;;;;;23.44;54.74;101302.41;5093988;27;45422;-85
2022/08/02 08:01:43;;;;;;;;;6.50;6.50;;;;;23.56;54.46;101319.31;5094276;27;45484;-85
2022/08/02 08:04:09;;;;;;;;;9.25;7.00;;;;;23.51;54.52;101299.69;5093867;27;45518;-85
2022/08/02 08:06:34;;;;;;;;;5.75;5.25;;;;;23.51;54.30;101284.47;5094036;27;45371;-85
2022/08/02 08:08:59;;;;;;;;;5.00;5.00;;;;;23.53;54.27;101285.31;5094193;27;45696;-85
2022/08/02 08:11:25;;;;;;;;;5.00;4.75;;;;;23.72;53.92;101303.97;5094105;27;45318;-84
2022/08/02 08:13:51;;;;;;;;;7.00;5.50;;;;;23.52;53.65;101259.41;5093673;27;45393;-85
2022/08/02 08:16:16;;;;;;;;;6.75;6.00;;;;;23.76;53.63;101303.03;5075383;27;45527;-85
2022/08/02 08:18:42;;;;;;;;;5.25;5.25;;;;;23.82;53.41;101308.31;5093395;27;45548;-85
2022/08/02 08:21:08;;;;;;;;;6.50;6.00;;;;;23.67;53.65;101278.06;5093177;27;45541;-85
2022/08/02 08:23:36;;;;;;;;;6.25;5.75;;;;;23.84;53.88;101298.44;5093916;27;45414;-84
2022/08/02 08:26:03;;;;;;;;;5.00;4.75;;;;;23.90;53.58;101303.78;5093812;27;45358;-85
2022/08/02 08:28:28;;;;;;;;;6.00;6.00;;;;;23.93;54.19;101306.41;5075637;27;46619;-85
2022/08/02 08:30:53;;;;;;;;;5.25;5.00;;;;;23.96;53.55;101298.31;5075357;27;45410;-84
2022/08/02 08:33:19;;;;;;;;;6.50;6.50;;;;;23.88;53.67;101287.66;5075435;27;45477;-85
2022/08/02 08:35:44;;;;;;;;;4.50;4.50;;;;;24.00;53.18;101300.06;5093397;27;45585;-85
2022/08/02 08:38:10;;;;;;;;;6.50;6.00;;;;;23.93;52.91;101279.56;5075104;27;47123;-85
2022/08/02 08:40:36;;;;;;;;;7.00;6.00;;;;;23.96;53.08;101282.22;5075250;27;45505;-84
2022/08/02 08:43:01;;;;;;;;;6.50;6.50;;;;;23.93;52.89;101266.13;5093777;27;45414;-85
2022/08/02 08:45:27;;;;;;;;;8.00;7.00;;;;;24.08;52.63;101279.34;5093495;27;45627;-83
2022/08/02 08:48:05;;;;;;;;;5.00;5.00;;;;;24.29;53.12;101306.88;5093401;27;46205;-84
2022/08/02 08:50:33;;;;;;;;;6.50;5.50;;;;;24.28;52.78;101292.53;5093014;27;45780;-84
2022/08/02 08:53:05;;;;;;;;;8.00;6.50;;;;;24.34;52.63;101294.28;5074986;27;45362;-83
2022/08/02 08:55:33;;;;;;;;;5.50;5.50;;;;;24.42;52.94;101301.34;5075080;27;45473;-85
2022/08/02 08:58:00;;;;;;;;;4.75;4.00;;;;;24.42;53.23;101285.22;5074649;27;48581;-85
2022/08/02 09:00:26;;;;;;;;;9.25;8.00;;;;;24.35;52.27;101263.81;5074882;27;46065;-82
2022/08/02 09:02:52;;;;;;;;;6.00;6.00;;;;;24.55;52.08;101299.38;5096128;27;45527;-83
2022/08/02 09:05:18;;;;;;;;;7.25;7.25;;;;;24.54;51.90;101294.03;5096322;27;45302;-84
2022/08/02 09:07:48;;;;;;;;;6.00;6.00;;;;;24.48;51.94;101284.22;5078101;27;47148;-85
2022/08/02 09:10:43;;;;;;;;;6.50;6.00;;;;;24.59;52.32;101293.06;5096702;27;45306;-83
2022/08/02 09:13:30;;;;;;;;;5.25;5.25;;;;;24.55;51.75;101283.25;5096663;27;45255;-83
2022/08/02 09:16:02;;;;;;;;;7.00;6.25;;;;;24.62;52.04;101292.09;5096671;27;45382;-84
2022/08/02 09:18:44;;;;;;;;;6.75;5.75;;;;;24.64;52.12;101291.19;5096346;27;45488;-83
2022/08/02 09:21:10;;;;;;;;;7.00;6.00;;;;;24.52;52.12;101261.78;5095828;27;45451;-84
2022/08/02 09:23:45;;;;;;;;;6.25;6.25;;;;;24.65;51.87;101268.75;5096685;27;45750;-84
2022/08/02 09:26:13;;;;;;;;;5.25;5.25;;;;;24.69;51.64;101273.19;5096275;27;45427;-85
2022/08/02 09:28:41;;;;;;;;;6.00;5.00;;;;;24.83;51.67;101291.81;5096365;27;46299;-84
2022/08/02 09:31:09;;;;;;;;;6.00;6.00;;;;;24.88;51.44;101280.97;5096264;27;45287;-84
2022/08/02 09:33:35;;;;;;;;;5.00;4.00;;;;;24.93;51.15;101279.09;5096181;27;45350;-83
2022/08/02 09:36:04;;;;;;;;;6.00;5.00;;;;;24.97;51.54;101278.09;5095829;27;45343;-83
2022/08/02 09:38:31;;;;;;;;;6.50;6.50;;;;;24.91;51.13;101254.00;5096301;27;46802;-82
2022/08/02 09:40:57;;;;;;;;;6.00;6.00;;;;;25.12;50.90;101277.91;5095907;27;45319;-83
2022/08/02 09:43:42;;;;;;;;;6.25;6.00;;;;;25.16;50.55;101267.97;5095891;27;45304;-84
2022/08/02 09:46:10;;;;;;;;;5.25;5.25;;;;;25.23;50.53;101282.22;5096055;27;45472;-83
2022/08/02 09:48:52;;;;;;;;;6.00;5.75;;;;;25.24;51.00;101263.34;5073895;27;46371;-85
2022/08/02 09:51:26;;;;;;;;;7.00;6.25;;;;;25.32;51.06;101269.50;5074061;28;45917;-85
2022/08/02 09:54:03;;;;;;;;;6.25;6.25;;;;;25.39;50.97;101271.16;5075501;28;45513;-85
2022/08/02 09:56:49;;;;;;;;;6.00;6.00;;;;;25.39;51.19;101248.72;5075450;27;45452;-85
2022/08/02 09:59:16;;;;;;;;;8.00;8.00;;;;;25.39;50.86;101249.63;5075093;27;45514;-84
2022/08/02 10:01:43;;;;;;;;;7.00;6.00;;;;;25.44;50.15;101241.47;5075153;28;45349;-85
2022/08/02 10:04:11;;;;;;;;;5.75;5.75;;;;;25.52;50.72;101242.22;5074050;28;45311;-85
2022/08/02 10:06:38;;;;;;;;;7.00;7.00;;;;;25.68;49.60;101257.13;5075063;27;45276;-85
2022/08/02 10:09:05;;;;;;;;;4.50;4.50;;;;;25.59;49.74;101230.38;5075162;27;45334;-85
2022/08/02 10:11:31;;;;;;;;;6.00;6.00;;;;;25.63;49.70;101226.72;5075750;27;45571;-84
2022/08/02 10:13:57;;;;;;;;;4.50;4.25;;;;;25.60;49.14;101216.00;5073650;28;45436;-85
2022/08/02 10:16:23;;;;;;;;;6.50;6.50;;;;;25.79;49.12;101238.09;5073827;28;45520;-84
2022/08/02 10:18:50;;;;;;;;;5.00;5.00;;;;;25.86;49.03;101238.84;5075694;27;45827;-85
2022/08/02 10:21:31;;;;;;;;;5.00;5.00;;;;;25.88;49.00;101231.66;5074388;28;45469;-85
2022/08/02 10:24:05;;;;;;;;;5.00;5.00;;;;;25.97;48.74;101237.72;5073828;28;45566;-84
2022/08/02 10:26:31;;;;;;;;;6.50;6.00;;;;;26.07;48.67;101246.50;5074936;28;45436;-84
2022/08/02 10:28:56;;;;;;;;;7.25;6.50;;;;;25.89;48.56;101201.09;5075321;27;46379;-85
2022/08/02 10:31:32;;;;;;;;;5.50;5.50;;;;;26.14;48.59;101241.84;5075027;28;45412;-84
2022/08/02 10:34:00;;;;;;;;;7.25;7.25;;;;;26.15;48.28;101240.94;5073659;28;45536;-84
2022/08/02 10:36:30;;;;;;;;;5.25;5.00;;;;;26.20;48.43;101239.91;5073122;28;45395;-84
2022/08/02 10:38:57;;;;;;;;;3.25;3.25;;;;;26.35;47.99;101249.44;5075018;28;46900;-85
2022/08/02 10:41:42;;;;;;;;;5.25;5.25;;;;;26.46;47.48;101249.28;5073465;28;45830;-84
2022/08/02 10:44:08;;;;;;;;;5.00;5.00;;;;;26.54;47.36;101258.03;5074758;27;45371;-84
2022/08/02 10:46:37;;;;;;;;;4.00;4.00;;;;;26.41;46.50;101219.69;5074287;27;45296;-84
2022/08/02 10:49:10;;;;;;;;;3.75;3.75;;;;;26.66;46.32;101246.09;5094743;27;45428;-83
2022/08/02 10:51:53;;;;;;;;;4.00;4.00;;;;;26.72;46.39;101251.34;5094680;27;45694;-84
2022/08/02 10:54:24;;;;;;;;;5.75;5.75;;;;;26.70;46.21;101232.50;5076556;27;45372;-84
2022/08/02 10:56:51;;;;;;;;;3.50;3.50;;;;;26.79;45.67;101244.84;5095256;27;45636;-84
2022/08/02 10:59:32;;;;;;;;;3.75;3.75;;;;;26.61;45.92;101194.09;5076331;27;47272;-84
2022/08/02 11:02:01;;;;;;;;;4.75;4.75;;;;;26.97;46.44;101241.72;5094626;27;45449;-83
2022/08/02 11:04:31;;;;;;;;;4.00;4.00;;;;;26.95;46.29;101213.03;5094784;27;45418;-83
2022/08/02 11:07:06;;;;;;;;;3.50;3.00;;;;;27.19;45.73;101231.31;5075992;27;45498;-83
2022/08/02 11:09:31;;;;;;;;;4.00;4.00;;;;;27.22;45.60;101217.69;5094716;27;45580;-85
2022/08/02 11:12:08;;;;;;;;;5.00;4.50;;;;;27.34;45.39;101218.28;5094739;27;45306;-84
2022/08/02 11:14:35;;;;;;;;;5.00;4.00;;;;;27.30;45.10;101208.53;5076281;27;45459;-83
2022/08/02 11:17:04;;;;;;;;;6.25;6.00;;;;;27.43;45.27;101218.94;5076325;27;45422;-84
2022/08/02 11:19:30;;;;;;;;;5.50;5.00;;;;;27.38;44.93;101203.78;5094692;27;46740;-83
2022/08/02 11:22:08;;;;;;;;;5.00;5.00;;;;;27.43;45.19;101199.16;5075787;27;46081;-84
2022/08/02 11:24:36;;;;;;;;;4.25;4.00;;;;;27.57;45.27;101207.75;5093777;27;45433;-83
2022/08/02 11:27:05;;;;;;;;;3.75;3.75;;;;;27.57;44.59;101186.13;5094487;27;45468;-82
2022/08/02 11:29:41;;;;;;;;;4.25;4.25;;;;;27.82;44.05;101215.16;5094155;27;46161;-85
2022/08/02 11:32:18;;;;;;;;;4.25;4.25;;;;;27.89;44.00;101220.38;5075942;27;45711;-84